Time;durP1;ratioP1;P1;durP2;ratioP2;P2;SDS_P1;SDS_P2;PMS_P1;PMS_P2;Temp;Humidity;BMP_temperature;BMP_pressure;BME280_temperature;BME280_humidity;BME280_pressure;Samples;Min_cycle;Max_cycle;Signal;HPM_P1;HPM_P2
2023/04/28 00:00:38;;;;;;;1.73;1.27;;;10.90;1.00;;;;;;5012036;28;20445;-73
2023/04/28 00:03:04;;;;;;;3.70;0.77;;;10.90;1.00;;;;;;5012181;28;20682;-73
2023/04/28 00:05:34;;;;;;;1.70;1.10;;;10.90;1.00;;;;;;5010790;28;21264;-73
2023/04/28 00:08:04;;;;;;;2.20;0.90;;;11.00;1.00;;;;;;5012408;28;20809;-73
2023/04/28 00:10:34;;;;;;;1.08;0.90;;;11.00;1.00;;;;;;5010683;28;20461;-73
2023/04/28 00:13:24;;;;;;;0.80;0.80;;;11.00;99.90;;;;;;5012697;28;21894;-73
2023/04/28 00:15:53;;;;;;;0.57;0.57;;;11.00;1.00;;;;;;5005843;28;20438;-73
2023/04/28 00:18:22;;;;;;;3.10;0.63;;;11.00;99.90;;;;;;5012110;28;20500;-73
2023/04/28 00:21:12;;;;;;;1.85;0.98;;;11.00;99.90;;;;;;5011376;28;20508;-73
2023/04/28 00:23:39;;;;;;;1.33;1.10;;;11.00;99.90;;;;;;5007486;28;21002;-73
2023/04/28 00:26:29;;;;;;;5.00;0.90;;;10.90;1.00;;;;;;5011073;28;20564;-73
2023/04/28 00:29:01;;;;;;;0.80;0.80;;;10.90;1.00;;;;;;5011129;28;20513;-73
2023/04/28 00:31:28;;;;;;;2.42;1.27;;;10.80;1.00;;;;;;5011903;28;20627;-73
2023/04/28 00:33:55;;;;;;;1.20;0.95;;;10.80;1.00;;;;;;5011348;28;20435;-73
2023/04/28 00:36:30;;;;;;;3.40;0.98;;;10.70;1.00;;;;;;5010119;28;20574;-73
2023/04/28 00:38:58;;;;;;;0.80;0.80;;;10.70;1.00;;;;;;5012297;28;20670;-73
2023/04/28 00:41:26;;;;;;;1.98;1.15;;;10.60;1.00;;;;;;5011165;28;20874;-73
2023/04/28 00:43:53;;;;;;;1.33;0.93;;;10.50;1.00;;;;;;5007939;28;20450;-74
2023/04/28 00:46:32;;;;;;;0.90;0.90;;;10.50;1.00;;;;;;5008964;28;20438;-73
2023/04/28 00:48:59;;;;;;;0.80;0.80;;;10.40;1.00;;;;;;5003546;28;20442;-73
2023/04/28 00:51:50;;;;;;;0.60;0.60;;;10.40;1.00;;;;;;5011251;28;20824;-73
2023/04/28 00:54:18;;;;;;;0.60;0.60;;;10.30;1.00;;;;;;5001227;28;20530;-73
2023/04/28 00:56:45;;;;;;;1.90;0.90;;;10.40;1.00;;;;;;5009284;28;20438;-73
2023/04/28 00:59:12;;;;;;;1.20;1.02;;;10.40;1.00;;;;;;5012180;28;20438;-73
2023/04/28 01:01:38;;;;;;;0.80;0.80;;;10.40;1.00;;;;;;5009359;28;22131;-73
2023/04/28 01:04:05;;;;;;;1.30;0.90;;;10.40;1.00;;;;;;5000795;28;20439;-73
2023/04/28 01:06:34;;;;;;;0.93;0.93;;;10.50;1.00;;;;;;5008180;28;20810;-74
2023/04/28 01:09:01;;;;;;;1.40;0.80;;;10.50;1.00;;;;;;5008550;28;20520;-73
2023/04/28 01:11:27;;;;;;;1.60;0.77;;;10.50;1.00;;;;;;5008267;28;20434;-73
2023/04/28 01:13:56;;;;;;;1.50;0.73;;;10.50;1.00;;;;;;5009264;28;20913;-73
2023/04/28 01:16:25;;;;;;;0.80;0.80;;;10.50;8.00;;;;;;5011339;28;20537;-73
2023/04/28 01:18:51;;;;;;;1.30;1.17;;;10.50;1.00;;;;;;5011562;28;22607;-74
2023/04/28 01:21:34;;;;;;;1.90;0.88;;;10.50;3.50;;;;;;5023872;28;20952;-74
2023/04/28 01:24:01;;;;;;;4.95;1.08;;;10.50;35.50;;;;;;5009591;28;20836;-73
2023/04/28 01:26:27;;;;;;;1.10;0.60;;;10.40;99.90;;;;;;5010494;28;20435;-74
2023/04/28 01:28:54;;;;;;;1.08;0.82;;;10.30;99.90;;;;;;5010656;28;20439;-74
2023/04/28 01:31:20;;;;;;;0.70;0.70;;;10.30;99.90;;;;;;5011317;28;20849;-74
2023/04/28 01:33:47;;;;;;;1.27;1.08;;;10.30;99.90;;;;;;5008759;28;20443;-74
2023/04/28 01:36:14;;;;;;;0.90;0.90;;;10.30;1.00;;;;;;5011061;28;20802;-74
2023/04/28 01:38:41;;;;;;;0.60;0.60;;;10.20;1.00;;;;;;5011567;28;20835;-74
2023/04/28 01:41:07;;;;;;;0.90;0.90;;;10.10;7.90;;;;;;5010838;28;20435;-74
2023/04/28 01:43:34;;;;;;;1.63;0.75;;;9.90;99.90;;;;;;5009908;28;20438;-74
2023/04/28 01:46:00;;;;;;;1.02;0.95;;;9.90;99.90;;;;;;5010259;28;20450;-74
2023/04/28 01:48:27;;;;;;;2.40;1.00;;;9.80;1.00;;;;;;5009803;28;20465;-74
2023/04/28 01:50:54;;;;;;;3.60;1.05;;;9.70;99.90;;;;;;5010846;28;20442;-74
2023/04/28 01:53:21;;;;;;;1.83;1.13;;;9.70;1.00;;;;;;5009926;28;20550;-73
2023/04/28 01:55:51;;;;;;;0.60;0.60;;;9.80;1.00;;;;;;5010258;28;21019;-74
2023/04/28 01:58:19;;;;;;;3.55;1.17;;;9.80;99.90;;;;;;5011447;28;21043;-74
2023/04/28 02:00:46;;;;;;;0.77;0.77;;;9.70;1.00;;;;;;4999532;28;20441;-74
2023/04/28 02:03:13;;;;;;;1.63;1.08;;;9.60;99.90;;;;;;5007733;28;20446;-74
2023/04/28 02:05:40;;;;;;;1.02;1.02;;;9.50;1.00;;;;;;5005887;28;20519;-74
2023/04/28 02:08:07;;;;;;;6.43;1.02;;;9.40;99.90;;;;;;5009843;28;20444;-74
2023/04/28 02:10:33;;;;;;;0.70;0.70;;;9.30;1.00;;;;;;5011725;28;20438;-74
2023/04/28 02:13:00;;;;;;;0.63;0.63;;;9.30;1.00;;;;;;5009593;28;20434;-74
2023/04/28 02:15:27;;;;;;;1.80;0.98;;;9.30;1.00;;;;;;5009712;28;20655;-74
2023/04/28 02:17:53;;;;;;;1.00;0.90;;;9.20;1.00;;;;;;5010663;28;20444;-74
2023/04/28 02:20:20;;;;;;;1.10;1.10;;;9.20;99.90;;;;;;5007581;28;20438;-74
2023/04/28 02:22:47;;;;;;;1.02;0.82;;;9.20;99.90;;;;;;5007000;28;20516;-74
2023/04/28 02:25:13;;;;;;;1.20;1.20;;;9.20;99.90;;;;;;5007710;28;20427;-74
2023/04/28 02:27:40;;;;;;;1.00;0.85;;;9.20;99.90;;;;;;5008419;28;20455;-74
2023/04/28 02:30:07;;;;;;;1.35;1.25;;;9.20;99.90;;;;;;5009100;28;20793;-74
2023/04/28 02:32:34;;;;;;;0.73;0.73;;;9.30;99.90;;;;;;5009465;28;20445;-74
2023/04/28 02:35:01;;;;;;;1.10;1.10;;;9.40;99.90;;;;;;5007947;28;20443;-74
2023/04/28 02:37:27;;;;;;;2.75;1.00;;;9.50;99.90;;;;;;5008367;28;20439;-74
2023/04/28 02:39:54;;;;;;;0.95;0.88;;;9.50;99.90;;;;;;5009080;28;20494;-74
2023/04/28 02:42:21;;;;;;;1.17;0.77;;;9.50;99.90;;;;;;5007317;28;20434;-74
2023/04/28 02:44:47;;;;;;;2.72;1.70;;;9.50;99.90;;;;;;5008346;28;20526;-74
2023/04/28 02:47:14;;;;;;;0.80;0.80;;;9.60;99.90;;;;;;5006863;28;20442;-74
2023/04/28 02:49:41;;;;;;;0.77;0.77;;;9.50;99.90;;;;;;5008535;28;20468;-74
2023/04/28 02:52:07;;;;;;;1.50;0.90;;;9.50;99.90;;;;;;5008732;28;22446;-74
2023/04/28 02:54:36;;;;;;;1.40;1.30;;;9.40;99.90;;;;;;5008473;28;20443;-74
2023/04/28 02:57:03;;;;;;;1.00;1.00;;;9.40;99.90;;;;;;5010492;28;20442;-74
2023/04/28 02:59:30;;;;;;;1.30;0.85;;;9.40;99.90;;;;;;5006554;28;20435;-74
2023/04/28 03:01:57;;;;;;;1.55;1.15;;;9.50;99.90;;;;;;5013025;28;20457;-74
2023/04/28 03:04:23;;;;;;;0.90;0.90;;;9.50;99.90;;;;;;5013137;28;20434;-74
2023/04/28 03:06:50;;;;;;;1.40;1.15;;;9.50;99.90;;;;;;5015178;28;20441;-74
2023/04/28 03:09:17;;;;;;;2.95;1.10;;;9.50;99.90;;;;;;5010944;28;20615;-74
2023/04/28 03:11:44;;;;;;;0.95;0.95;;;9.60;99.90;;;;;;5012980;28;20801;-74
2023/04/28 03:14:11;;;;;;;1.20;1.20;;;9.50;99.90;;;;;;5011513;28;20516;-74
2023/04/28 03:16:38;;;;;;;0.82;0.82;;;9.50;99.90;;;;;;5014310;28;20443;-74
2023/04/28 03:19:04;;;;;;;9.75;1.25;;;9.30;99.90;;;;;;5013641;28;20427;-75
2023/04/28 03:21:31;;;;;;;6.50;1.50;;;9.20;99.90;;;;;;5010409;28;20492;-75
2023/04/28 03:23:58;;;;;;;1.40;1.08;;;9.10;1.00;;;;;;5010967;28;20762;-75
2023/04/28 03:26:25;;;;;;;1.15;1.10;;;9.00;1.00;;;;;;5012006;28;20446;-75
2023/04/28 03:28:51;;;;;;;0.80;0.80;;;9.00;1.00;;;;;;5012775;28;20439;-74
2023/04/28 03:31:18;;;;;;;0.75;0.75;;;9.00;1.00;;;;;;5004798;28;21051;-74
2023/04/28 03:33:46;;;;;;;1.45;1.20;;;9.00;1.00;;;;;;5011055;28;20443;-74
2023/04/28 03:36:13;;;;;;;0.80;0.80;;;9.00;1.00;;;;;;5011234;28;20435;-74
2023/04/28 03:38:40;;;;;;;1.73;1.02;;;9.00;1.00;;;;;;5027672;28;20932;-74
2023/04/28 03:41:07;;;;;;;1.00;1.00;;;9.10;1.00;;;;;;5012618;28;20617;-74
2023/04/28 03:43:36;;;;;;;1.33;0.88;;;9.10;1.00;;;;;;5011529;28;20534;-74
2023/04/28 03:46:05;;;;;;;1.50;1.40;;;9.20;1.00;;;;;;5010872;28;20435;-74
2023/04/28 03:48:32;;;;;;;0.95;0.95;;;9.20;1.00;;;;;;5010366;28;20438;-74
2023/04/28 03:50:59;;;;;;;1.60;1.00;;;9.30;1.00;;;;;;5013360;28;20461;-75
2023/04/28 03:53:26;;;;;;;0.87;0.87;;;9.40;1.00;;;;;;5005164;28;20437;-74
2023/04/28 03:55:53;;;;;;;2.42;1.90;;;9.40;1.00;;;;;;5011828;28;20430;-74
2023/04/28 03:58:20;;;;;;;0.75;0.75;;;9.40;1.00;;;;;;5012961;28;20438;-74
2023/04/28 04:00:46;;;;;;;0.80;0.80;;;9.50;1.00;;;;;;5017781;28;20900;-75
2023/04/28 04:03:13;;;;;;;0.95;0.95;;;9.50;1.00;;;;;;5011078;28;20453;-74
2023/04/28 04:05:43;;;;;;;1.80;1.35;;;9.50;1.00;;;;;;5012436;28;20442;-74
2023/04/28 04:08:10;;;;;;;0.80;0.80;;;9.50;1.00;;;;;;5012913;28;20441;-74
2023/04/28 04:10:37;;;;;;;2.20;1.20;;;9.50;1.00;;;;;;5011969;28;20458;-74
2023/04/28 04:13:05;;;;;;;1.30;1.30;;;9.40;1.00;;;;;;5014255;28;20434;-74
2023/04/28 04:15:32;;;;;;;1.00;1.00;;;9.30;1.00;;;;;;5015900;28;20442;-74
2023/04/28 04:17:58;;;;;;;1.20;1.10;;;9.20;1.00;;;;;;5019328;28;20431;-74
2023/04/28 04:20:25;;;;;;;0.85;0.85;;;9.10;1.00;;;;;;5023715;28;20632;-74
2023/04/28 04:22:52;;;;;;;0.70;0.70;;;9.10;1.00;;;;;;5012389;28;20860;-74
2023/04/28 04:25:19;;;;;;;7.32;1.27;;;9.10;1.00;;;;;;5011988;28;20468;-74
2023/04/28 04:27:49;;;;;;;2.72;1.00;;;9.10;1.00;;;;;;5011813;28;20443;-74
2023/04/28 04:30:15;;;;;;;1.60;1.20;;;9.00;1.00;;;;;;5011531;28;20941;-74
2023/04/28 04:32:42;;;;;;;0.88;0.88;;;9.00;1.00;;;;;;5009439;28;20434;-74
2023/04/28 04:35:09;;;;;;;2.20;1.08;;;9.00;1.00;;;;;;5009163;28;20482;-74
2023/04/28 04:37:36;;;;;;;1.20;1.17;;;9.00;1.00;;;;;;5013328;28;20836;-74
2023/04/28 04:40:03;;;;;;;1.00;1.00;;;9.00;1.00;;;;;;5007447;28;20423;-74
2023/04/28 04:42:30;;;;;;;0.90;0.88;;;8.90;1.00;;;;;;5011618;28;20798;-74
2023/04/28 04:44:56;;;;;;;0.87;0.87;;;8.90;1.00;;;;;;5010843;28;20442;-74
2023/04/28 04:47:24;;;;;;;0.75;0.75;;;8.90;1.00;;;;;;5011620;28;20933;-75
2023/04/28 04:49:51;;;;;;;1.45;1.35;;;8.90;1.50;;;;;;4997649;28;20629;-74
2023/04/28 04:52:19;;;;;;;0.90;0.90;;;8.90;2.90;;;;;;4999859;28;20883;-74
2023/04/28 04:54:45;;;;;;;1.23;1.10;;;8.90;8.70;;;;;;5006069;28;20439;-74
2023/04/28 04:57:13;;;;;;;0.90;0.90;;;8.90;14.00;;;;;;5009546;28;20509;-75
2023/04/28 04:59:40;;;;;;;2.75;1.45;;;8.80;18.30;;;;;;5008193;28;20430;-75
2023/04/28 05:02:10;;;;;;;3.20;1.45;;;8.80;21.00;;;;;;5007185;28;20929;-75
2023/04/28 05:04:37;;;;;;;2.03;1.55;;;8.80;33.00;;;;;;5005367;28;20439;-75
2023/04/28 05:07:04;;;;;;;1.38;1.27;;;8.80;52.30;;;;;;5010058;28;20917;-75
2023/04/28 05:09:32;;;;;;;1.10;1.10;;;8.80;71.90;;;;;;5010517;28;20926;-75
2023/04/28 05:11:59;;;;;;;0.60;0.60;;;8.80;89.60;;;;;;4998721;28;20438;-75
2023/04/28 05:14:25;;;;;;;1.60;0.90;;;8.80;99.20;;;;;;5007313;28;20437;-75
2023/04/28 05:16:52;;;;;;;1.00;1.00;;;8.90;99.90;;;;;;5018387;28;20436;-74
2023/04/28 05:19:21;;;;;;;1.58;1.48;;;8.80;99.90;;;;;;5003207;28;21009;-70
2023/04/28 05:21:48;;;;;;;3.28;1.73;;;8.80;99.90;;;;;;5004380;28;20427;-70
2023/04/28 05:24:14;;;;;;;1.13;1.13;;;8.80;99.90;;;;;;5005275;28;20451;-70
2023/04/28 05:26:41;;;;;;;0.83;0.83;;;8.80;99.90;;;;;;5001330;28;20542;-70
2023/04/28 05:29:08;;;;;;;0.90;0.90;;;8.80;99.90;;;;;;5002179;28;20677;-71
2023/04/28 05:31:35;;;;;;;1.10;1.10;;;8.80;99.90;;;;;;5005967;28;20465;-71
2023/04/28 05:34:02;;;;;;;1.38;1.38;;;8.80;99.90;;;;;;5002314;28;20438;-71
2023/04/28 05:36:29;;;;;;;1.50;1.20;;;8.80;99.90;;;;;;5002993;28;20439;-71
2023/04/28 05:38:55;;;;;;;1.20;1.20;;;8.80;99.90;;;;;;5009248;28;20498;-71
2023/04/28 05:41:22;;;;;;;1.45;1.35;;;8.90;99.90;;;;;;5006782;28;20895;-71
2023/04/28 05:43:50;;;;;;;1.83;1.52;;;9.00;99.90;;;;;;5003711;28;20437;-71
2023/04/28 05:46:17;;;;;;;1.02;1.02;;;9.10;99.90;;;;;;5003970;28;20444;-70
2023/04/28 05:48:57;;;;;;;1.17;1.08;;;9.10;99.90;;;;;;5008738;28;20441;-71
2023/04/28 05:51:23;;;;;;;1.95;1.45;;;9.00;99.90;;;;;;5003796;28;20917;-71
2023/04/28 05:53:50;;;;;;;1.88;1.65;;;9.10;99.90;;;;;;5003970;28;20466;-72
2023/04/28 05:56:17;;;;;;;1.20;1.20;;;9.00;99.90;;;;;;5002876;28;20472;-70
2023/04/28 05:58:48;;;;;;;2.60;1.40;;;9.00;99.90;;;;;;5003807;28;20427;-70
2023/04/28 06:01:16;;;;;;;1.52;1.42;;;9.00;99.90;;;;;;5004150;28;20939;-73
2023/04/28 06:03:43;;;;;;;1.45;1.45;;;9.00;99.90;;;;;;5004803;28;20581;-72
2023/04/28 06:06:11;;;;;;;3.17;1.80;;;9.00;99.90;;;;;;5001894;28;20925;-71
2023/04/28 06:08:39;;;;;;;1.80;1.23;;;9.00;99.90;;;;;;4996076;28;20834;-71
2023/04/28 06:11:06;;;;;;;1.20;1.20;;;9.00;99.90;;;;;;5006749;28;20438;-71
2023/04/28 06:13:32;;;;;;;1.33;1.27;;;9.00;99.90;;;;;;5018446;28;20561;-70
2023/04/28 06:16:02;;;;;;;1.77;1.60;;;9.00;99.90;;;;;;5008426;28;20458;-72
2023/04/28 06:18:31;;;;;;;1.10;1.00;;;9.00;99.90;;;;;;5007544;28;20437;-72
2023/04/28 06:20:58;;;;;;;1.63;1.52;;;9.10;99.90;;;;;;5006730;28;20438;-71
2023/04/28 06:23:25;;;;;;;1.23;1.13;;;9.00;99.90;;;;;;5004160;28;20441;-72
2023/04/28 06:25:52;;;;;;;1.30;0.85;;;9.10;99.90;;;;;;5005889;28;20623;-72
2023/04/28 06:28:18;;;;;;;1.35;1.25;;;9.10;99.90;;;;;;4996575;28;20446;-73
2023/04/28 06:30:45;;;;;;;1.00;1.00;;;9.10;99.90;;;;;;5004365;28;20525;-72
2023/04/28 06:33:12;;;;;;;1.13;1.10;;;9.20;99.90;;;;;;5010597;28;20431;-72
2023/04/28 06:35:38;;;;;;;3.65;1.35;;;9.30;99.90;;;;;;5007084;28;20430;-72
2023/04/28 06:38:06;;;;;;;1.33;1.23;;;9.30;99.90;;;;;;5006963;28;20932;-72
2023/04/28 06:40:32;;;;;;;1.70;1.60;;;9.40;99.90;;;;;;5005622;28;20435;-72
2023/04/28 06:43:00;;;;;;;1.13;1.05;;;9.30;99.90;;;;;;5006336;28;20953;-72
2023/04/28 06:45:27;;;;;;;1.83;1.73;;;9.20;99.90;;;;;;5009533;28;20966;-72
2023/04/28 06:47:54;;;;;;;1.60;1.50;;;9.20;99.90;;;;;;5003134;28;20802;-71
2023/04/28 06:50:22;;;;;;;1.58;1.48;;;9.30;99.90;;;;;;5006577;28;20811;-71
2023/04/28 06:52:49;;;;;;;3.78;1.60;;;9.30;99.90;;;;;;5006450;28;20429;-72
2023/04/28 06:55:16;;;;;;;1.55;1.45;;;9.20;99.90;;;;;;5003634;28;20917;-71
2023/04/28 06:57:43;;;;;;;0.97;0.90;;;9.30;99.90;;;;;;5009811;28;21036;-71
2023/04/28 07:00:11;;;;;;;1.80;1.38;;;9.40;99.90;;;;;;5009123;28;20847;-72
2023/04/28 07:02:38;;;;;;;1.42;1.33;;;9.40;99.90;;;;;;5002649;28;20441;-71
2023/04/28 07:05:05;;;;;;;2.10;1.70;;;9.40;99.90;;;;;;5008380;28;20992;-71
2023/04/28 07:07:32;;;;;;;3.75;1.13;;;9.50;99.90;;;;;;5014335;28;20461;-70
2023/04/28 07:09:59;;;;;;;1.95;1.30;;;9.50;99.90;;;;;;5015745;28;20997;-71
2023/04/28 07:12:28;;;;;;;1.45;1.35;;;9.50;99.90;;;;;;5008958;28;20442;-71
2023/04/28 07:14:54;;;;;;;1.73;1.63;;;9.60;99.90;;;;;;5009052;28;20461;-70
2023/04/28 07:17:21;;;;;;;2.03;1.83;;;9.60;99.90;;;;;;5007659;28;20497;-70
2023/04/28 07:19:51;;;;;;;2.75;2.55;;;9.70;99.90;;;;;;5009686;28;20436;-71
2023/04/28 07:22:18;;;;;;;2.67;1.90;;;9.80;99.90;;;;;;5007346;28;21352;-70
2023/04/28 07:24:44;;;;;;;1.60;1.50;;;9.90;99.90;;;;;;5004624;28;20926;-70
2023/04/28 07:27:17;;;;;;;3.10;1.90;;;9.90;99.90;;;;;;5004029;28;20442;-70
2023/04/28 07:29:44;;;;;;;2.50;1.63;;;10.00;99.90;;;;;;5002385;28;20431;-70
2023/04/28 07:32:11;;;;;;;3.08;2.50;;;10.30;99.90;;;;;;5006928;28;20549;-70
2023/04/28 07:34:38;;;;;;;1.95;1.85;;;10.50;99.90;;;;;;5010239;28;20531;-70
2023/04/28 07:37:05;;;;;;;1.75;1.65;;;10.50;99.90;;;;;;5009564;28;20577;-71
2023/04/28 07:39:38;;;;;;;2.53;2.03;;;10.40;99.90;;;;;;5010718;28;20437;-71
2023/04/28 07:42:04;;;;;;;2.70;1.40;;;10.50;99.90;;;;;;5012144;28;20442;-71
2023/04/28 07:44:31;;;;;;;1.92;1.73;;;10.70;99.90;;;;;;5008109;28;20492;-70
2023/04/28 07:46:59;;;;;;;1.38;1.30;;;10.90;99.90;;;;;;5009702;28;20658;-70
2023/04/28 07:49:28;;;;;;;1.42;1.35;;;11.10;99.90;;;;;;5007812;28;20518;-71
2023/04/28 07:51:55;;;;;;;1.83;1.50;;;11.00;99.90;;;;;;5008061;28;20435;-71
2023/04/28 07:54:22;;;;;;;2.88;1.67;;;11.00;99.90;;;;;;5009974;28;21055;-70
2023/04/28 07:56:52;;;;;;;1.48;1.38;;;11.10;99.90;;;;;;5009495;28;20435;-70
2023/04/28 07:59:22;;;;;;;2.33;2.08;;;11.10;99.90;;;;;;5010431;28;20506;-71
2023/04/28 08:01:55;;;;;;;1.25;1.20;;;11.20;99.90;;;;;;5010381;28;20542;-70
2023/04/28 08:04:21;;;;;;;1.95;1.85;;;11.30;99.90;;;;;;5010610;28;20518;-70
2023/04/28 08:06:49;;;;;;;3.45;1.60;;;11.20;99.90;;;;;;5008055;28;20508;-71
2023/04/28 08:09:16;;;;;;;1.85;1.75;;;11.40;99.90;;;;;;5010055;28;21109;-71
2023/04/28 08:11:43;;;;;;;2.30;2.13;;;11.70;99.90;;;;;;5008132;28;20439;-71
2023/04/28 08:14:10;;;;;;;1.63;1.52;;;11.80;99.90;;;;;;5011082;28;20439;-70
2023/04/28 08:16:39;;;;;;;2.08;1.90;;;11.80;99.90;;;;;;5012420;28;20427;-70
2023/04/28 08:19:06;;;;;;;1.80;1.70;;;11.60;99.90;;;;;;5009867;28;20448;-70
2023/04/28 08:21:35;;;;;;;2.22;1.85;;;11.70;99.90;;;;;;5008295;28;20448;-70
2023/04/28 08:24:02;;;;;;;1.90;1.80;;;11.90;99.90;;;;;;5025578;28;21019;-71
2023/04/28 08:26:30;;;;;;;1.90;1.80;;;12.20;99.90;;;;;;5008354;28;20789;-71
2023/04/28 08:28:57;;;;;;;1.90;1.80;;;12.40;99.90;;;;;;5006579;28;20438;-71
2023/04/28 08:31:24;;;;;;;2.10;1.90;;;12.50;99.90;;;;;;5024614;28;20451;-68
2023/04/28 08:33:51;;;;;;;2.10;1.92;;;12.60;99.00;;;;;;5011642;28;20509;-69
2023/04/28 08:36:23;;;;;;;1.77;1.73;;;12.70;87.90;;;;;;5007277;28;20435;-69
2023/04/28 08:38:50;;;;;;;2.30;1.73;;;12.80;55.50;;;;;;5009953;28;21083;-69
2023/04/28 08:41:18;;;;;;;3.83;1.83;;;13.00;50.30;;;;;;5009366;28;20442;-69
2023/04/28 08:43:47;;;;;;;2.00;1.90;;;13.10;18.90;;;;;;5008178;28;20430;-69
2023/04/28 08:46:14;;;;;;;3.83;1.83;;;13.00;1.00;;;;;;5006946;28;20445;-70
2023/04/28 08:48:44;;;;;;;2.22;1.98;;;13.00;1.00;;;;;;5010398;28;20430;-70
2023/04/28 08:51:32;;;;;;;2.47;1.70;;;13.00;1.00;;;;;;5008417;28;20512;-69
2023/04/28 08:54:03;;;;;;;2.67;2.08;;;13.20;1.00;;;;;;5009531;28;20439;-70
2023/04/28 08:56:50;;;;;;;2.42;2.30;;;13.40;1.00;;;;;;5008454;28;20415;-70
2023/04/28 08:59:20;;;;;;;3.78;1.73;;;13.40;1.00;;;;;;5024000;28;20829;-70
2023/04/28 09:01:50;;;;;;;5.60;2.63;;;13.70;1.00;;;;;;5009585;28;20484;-70
2023/04/28 09:04:18;;;;;;;3.20;2.50;;;13.90;1.00;;;;;;5011411;28;20561;-70
2023/04/28 09:06:45;;;;;;;2.45;2.25;;;14.30;1.00;;;;;;5007216;28;20429;-70
2023/04/28 09:09:24;;;;;;;4.00;3.05;;;14.50;1.00;;;;;;5008824;28;20443;-70
2023/04/28 09:11:57;;;;;;;4.20;3.40;;;14.60;99.90;;;;;;5008640;28;20854;-70
2023/04/28 09:14:24;;;;;;;2.60;2.47;;;14.80;99.90;;;;;;5010033;28;20433;-70
2023/04/28 09:16:51;;;;;;;4.85;3.20;;;14.90;99.90;;;;;;5010889;28;20802;-70
2023/04/28 09:19:18;;;;;;;3.30;3.00;;;14.80;99.90;;;;;;5008986;28;23944;-70
2023/04/28 09:21:48;;;;;;;2.58;1.80;;;14.70;99.90;;;;;;5006658;28;20524;-70
2023/04/28 09:24:33;;;;;;;2.50;2.10;;;14.50;99.90;;;;;;5007274;28;20655;-70
2023/04/28 09:27:04;;;;;;;3.22;2.35;;;14.70;99.90;;;;;;5009026;28;20462;-71
2023/04/28 09:29:31;;;;;;;2.90;2.70;;;15.10;99.90;;;;;;5003385;28;20439;-70
2023/04/28 09:32:17;;;;;;;3.38;2.60;;;15.20;65.40;;;;;;5008851;28;20434;-70
2023/04/28 09:34:48;;;;;;;4.07;2.97;;;15.30;99.90;;;;;;5008256;28;20432;-71
2023/04/28 09:37:19;;;;;;;3.55;3.25;;;15.50;1.00;;;;;;5009716;28;22018;-70
2023/04/28 09:39:51;;;;;;;2.43;2.17;;;16.20;1.00;;;;;;5011712;28;20427;-70
2023/04/28 09:42:41;;;;;;;3.20;2.90;;;17.00;1.00;;;;;;5011162;28;20996;-70
2023/04/28 09:45:13;;;;;;;3.28;2.92;;;17.00;1.00;;;;;;5007929;28;20507;-70
2023/04/28 09:47:45;;;;;;;3.90;2.80;;;17.30;99.90;;;;;;5010728;28;20818;-71
2023/04/28 09:50:14;;;;;;;3.50;3.20;;;17.50;99.90;;;;;;5012041;28;20797;-70
2023/04/28 09:52:43;;;;;;;3.00;2.80;;;17.30;99.90;;;;;;5011057;28;20435;-71
2023/04/28 09:55:11;;;;;;;3.53;2.47;;;16.90;99.90;;;;;;5009643;28;20446;-68
2023/04/28 09:57:39;;;;;;;4.00;2.83;;;16.40;99.90;;;;;;5002400;28;20531;-70
2023/04/28 10:00:16;;;;;;;2.60;2.40;;;16.10;14.60;;;;;;5009425;28;20813;-71
2023/04/28 10:02:48;;;;;;;3.13;2.58;;;16.10;1.00;;;;;;5010487;28;20446;-70
2023/04/28 10:05:20;;;;;;;3.63;2.85;;;16.40;1.00;;;;;;5002413;28;20434;-70
2023/04/28 10:07:52;;;;;;;2.70;2.50;;;16.80;99.90;;;;;;5008941;28;20431;-70
2023/04/28 10:10:21;;;;;;;3.17;2.70;;;17.00;1.00;;;;;;5007599;28;20431;-70
2023/04/28 10:12:48;;;;;;;3.10;2.90;;;16.40;99.90;;;;;;5006977;28;20941;-70
2023/04/28 10:15:15;;;;;;;4.07;3.10;;;16.70;99.90;;;;;;5004184;28;20435;-70
2023/04/28 10:17:42;;;;;;;2.65;2.45;;;16.60;1.00;;;;;;5007216;28;20439;-71
2023/04/28 10:20:11;;;;;;;3.55;2.88;;;16.80;1.00;;;;;;5009158;28;20435;-70
2023/04/28 10:23:16;;;;;;;3.10;2.85;;;16.50;99.90;;;;;;5024881;28;20959;-69
2023/04/28 10:25:47;;;;;;;3.05;2.47;;;16.70;99.90;;;;;;5024942;28;20465;-70
2023/04/28 10:28:14;;;;;;;3.63;3.23;;;17.30;99.90;;;;;;5008593;28;20921;-70
2023/04/28 10:31:28;;;;;;;3.80;3.17;;;18.00;99.90;;;;;;5011673;28;20456;-71
2023/04/28 10:33:56;;;;;;;4.10;2.83;;;18.60;99.90;;;;;;5003376;28;20467;-70
2023/04/28 10:36:49;;;;;;;2.55;2.35;;;18.70;21.40;;;;;;5009144;28;20449;-70
2023/04/28 10:39:16;;;;;;;2.67;2.45;;;18.60;99.90;;;;;;5012465;28;20427;-70
2023/04/28 10:41:46;;;;;;;4.20;2.28;;;18.70;99.90;;;;;;5010897;28;20461;-69
2023/04/28 10:44:31;;;;;;;3.00;2.17;;;18.60;14.20;;;;;;5012734;28;20443;-70
2023/04/28 10:47:06;;;;;;;3.25;2.70;;;18.70;78.10;;;;;;5010297;28;20455;-70
2023/04/28 10:50:03;;;;;;;3.30;2.47;;;18.70;1.00;;;;;;5008185;28;20956;-70
2023/04/28 10:52:37;;;;;;;2.63;2.42;;;18.90;1.00;;;;;;5011400;28;20448;-70
2023/04/28 10:55:35;;;;;;;2.90;2.70;;;18.90;1.00;;;;;;5010870;28;20470;-70
2023/04/28 10:58:17;;;;;;;2.20;2.10;;;19.30;1.00;;;;;;5008425;28;20522;-70
2023/04/28 11:00:44;;;;;;;2.90;2.60;;;19.10;1.00;;;;;;5010779;28;20442;-70
2023/04/28 11:03:38;;;;;;;3.20;2.80;;;18.90;1.00;;;;;;5010293;28;20458;-70
2023/04/28 11:06:35;;;;;;;2.28;2.10;;;18.40;1.00;;;;;;5002258;28;20882;-70
2023/04/28 11:09:31;;;;;;;2.90;2.53;;;18.40;99.90;;;;;;5010763;28;20562;-70
2023/04/28 11:12:00;;;;;;;5.80;2.70;;;18.50;99.90;;;;;;5000928;28;20439;-70
2023/04/28 11:14:39;;;;;;;2.65;2.45;;;18.60;53.60;;;;;;5008836;28;20454;-70
2023/04/28 11:17:12;;;;;;;3.35;3.05;;;18.50;99.90;;;;;;5007537;28;21043;-69
2023/04/28 11:19:42;;;;;;;3.90;2.72;;;18.30;99.90;;;;;;5010366;28;20423;-70
2023/04/28 11:22:17;;;;;;;2.88;2.60;;;18.50;99.90;;;;;;5010855;28;20430;-70
2023/04/28 11:25:01;;;;;;;3.33;2.50;;;18.40;99.90;;;;;;5012828;28;20447;-70
2023/04/28 11:27:32;;;;;;;2.70;2.47;;;18.30;99.90;;;;;;5012190;28;20860;-69
2023/04/28 11:30:00;;;;;;;4.22;2.40;;;18.10;1.00;;;;;;5017724;28;20831;-69
2023/04/28 11:32:29;;;;;;;2.65;2.08;;;17.80;99.90;;;;;;5022871;28;20442;-70
2023/04/28 11:34:56;;;;;;;2.60;2.33;;;17.60;99.90;;;;;;5016197;28;20431;-71
2023/04/28 11:37:23;;;;;;;2.92;2.72;;;17.40;1.00;;;;;;5012239;28;20469;-70
2023/04/28 11:39:53;;;;;;;3.17;2.90;;;17.50;1.00;;;;;;5012226;28;20438;-71
2023/04/28 11:42:25;;;;;;;2.50;2.30;;;17.80;1.00;;;;;;5012851;28;20431;-71
2023/04/28 11:44:55;;;;;;;2.63;2.43;;;18.00;1.00;;;;;;5009647;28;20439;-71
2023/04/28 11:47:33;;;;;;;3.63;2.50;;;17.90;1.00;;;;;;5013048;28;20448;-71
2023/04/28 11:50:00;;;;;;;2.38;2.28;;;17.60;1.00;;;;;;5030058;28;20528;-69
2023/04/28 11:52:27;;;;;;;3.00;2.75;;;17.60;1.00;;;;;;5008924;28;20445;-69
2023/04/28 11:55:00;;;;;;;3.03;2.83;;;17.40;99.90;;;;;;5010111;28;20848;-70
2023/04/28 11:57:27;;;;;;;4.43;2.97;;;17.20;1.00;;;;;;5010172;28;20520;-69
2023/04/28 12:00:20;;;;;;;4.72;3.08;;;16.90;99.90;;;;;;5012393;28;21181;-69
2023/04/28 12:02:47;;;;;;;3.53;3.22;;;16.80;1.00;;;;;;5012771;28;20956;-69
2023/04/28 12:05:14;;;;;;;4.32;3.25;;;16.90;1.00;;;;;;5013469;28;20790;-69
2023/04/28 12:07:44;;;;;;;4.72;3.13;;;17.20;1.00;;;;;;5015074;28;20442;-69
2023/04/28 12:10:21;;;;;;;3.50;3.20;;;17.10;99.90;;;;;;5014640;28;20656;-69
2023/04/28 12:12:47;;;;;;;2.83;2.53;;;17.30;1.00;;;;;;5013839;28;20438;-70
2023/04/28 12:15:20;;;;;;;2.90;2.70;;;17.30;1.00;;;;;;5010832;28;20443;-70
2023/04/28 12:17:49;;;;;;;3.15;2.85;;;17.00;99.90;;;;;;5009547;28;20435;-70
2023/04/28 12:20:36;;;;;;;3.20;2.97;;;17.80;99.90;;;;;;5029349;28;20478;-70
2023/04/28 12:23:03;;;;;;;3.00;2.75;;;18.70;99.90;;;;;;5015344;28;20520;-70
2023/04/28 12:25:29;;;;;;;2.72;2.42;;;19.10;99.90;;;;;;5012057;28;20901;-71
2023/04/28 12:28:04;;;;;;;2.80;2.60;;;19.30;99.90;;;;;;5013723;28;20437;-70
2023/04/28 12:30:45;;;;;;;3.00;2.30;;;19.70;99.90;;;;;;5012249;28;20442;-71
2023/04/28 12:33:26;;;;;;;2.13;1.77;;;20.00;99.90;;;;;;5011530;28;20449;-71
2023/04/28 12:35:55;;;;;;;1.98;1.88;;;20.40;99.90;;;;;;5010734;28;20788;-70
2023/04/28 12:38:22;;;;;;;4.75;1.83;;;20.00;99.90;;;;;;5012162;28;20429;-70
2023/04/28 12:40:49;;;;;;;2.70;2.50;;;19.90;99.90;;;;;;5012317;28;20909;-71
2023/04/28 12:43:17;;;;;;;2.25;2.15;;;19.70;99.90;;;;;;5011204;28;20450;-71
2023/04/28 12:45:46;;;;;;;2.40;2.30;;;19.80;99.90;;;;;;5012615;28;20471;-70
2023/04/28 12:48:13;;;;;;;1.58;1.48;;;19.40;99.90;;;;;;5011531;28;22515;-70
2023/04/28 12:50:40;;;;;;;1.95;1.85;;;19.10;99.90;;;;;;5011722;28;20436;-71
2023/04/28 12:53:11;;;;;;;2.50;2.30;;;19.60;99.90;;;;;;5004367;28;20431;-70
2023/04/28 12:55:39;;;;;;;2.13;2.03;;;19.30;99.90;;;;;;5010309;28;20430;-70
2023/04/28 12:58:07;;;;;;;2.28;2.05;;;19.00;99.90;;;;;;5009804;28;20442;-69
2023/04/28 13:00:36;;;;;;;2.40;2.20;;;18.30;99.90;;;;;;5012268;28;20435;-70
2023/04/28 13:03:03;;;;;;;4.28;2.25;;;17.90;99.90;;;;;;5010532;28;20435;-69
2023/04/28 13:05:33;;;;;;;2.17;1.98;;;17.60;99.90;;;;;;5011602;28;20450;-70
2023/04/28 13:08:24;;;;;;;2.23;2.03;;;17.50;99.90;;;;;;5011811;28;20422;-70